Time;durP1;ratioP1;P1;durP2;ratioP2;P2;SDS_P1;SDS_P2;PMS_P1;PMS_P2;Temp;Humidity;BMP_temperature;BMP_pressure;BME280_temperature;BME280_humidity;BME280_pressure;Samples;Min_cycle;Max_cycle;Signal;HPM_P1;HPM_P2
2023/07/16 00:02:02;;;;;;;;;5.25;5.25;;;;;22.15;42.93;100862.66;5101751;27;45704;-67
2023/07/16 00:04:27;;;;;;;;;5.50;4.00;;;;;22.08;43.54;100863.25;5080252;27;45435;-67
2023/07/16 00:06:52;;;;;;;;;2.00;2.00;;;;;22.21;43.60;100891.19;5083470;27;45954;-67
2023/07/16 00:09:18;;;;;;;;;5.25;4.00;;;;;22.17;43.70;100882.41;5081519;27;47230;-67
2023/07/16 00:11:43;;;;;;;;;4.00;4.00;;;;;22.21;43.15;100893.91;5101386;27;45393;-67
2023/07/16 00:14:11;;;;;;;;;3.00;2.00;;;;;22.16;43.70;100894.25;5082859;27;45595;-67
2023/07/16 00:16:37;;;;;;;;;6.50;5.75;;;;;22.01;43.97;100880.03;5086031;27;45565;-67
2023/07/16 00:19:02;;;;;;;;;5.00;5.00;;;;;22.11;44.32;100890.19;5099758;27;46149;-67
2023/07/16 00:21:28;;;;;;;;;7.50;6.00;;;;;22.08;44.44;100894.00;5098983;27;45433;-67
2023/07/16 00:23:53;;;;;;;;;7.00;5.50;;;;;22.07;44.52;100894.13;5101902;27;45320;-67
2023/07/16 00:26:18;;;;;;;;;7.75;5.25;;;;;21.95;44.77;100883.25;5099272;27;45637;-67
2023/07/16 00:28:44;;;;;;;;;5.25;5.25;;;;;21.98;44.23;100895.72;5101825;27;45375;-67
2023/07/16 00:31:09;;;;;;;;;6.75;5.50;;;;;21.94;45.16;100888.78;5082019;27;45400;-67
2023/07/16 00:33:35;;;;;;;;;7.00;5.25;;;;;21.98;44.31;100895.72;5083002;27;45354;-67
2023/07/16 00:36:00;;;;;;;;;6.00;3.50;;;;;21.84;44.82;100873.19;5082294;27;48005;-67
2023/07/16 00:38:25;;;;;;;;;5.00;4.25;;;;;21.91;45.42;100886.31;5082495;27;47505;-67
2023/07/16 00:40:51;;;;;;;;;5.50;4.50;;;;;21.96;45.26;100894.97;5096213;27;45349;-67
2023/07/16 00:43:16;;;;;;;;;6.75;5.00;;;;;21.75;44.83;100857.63;5101592;27;45386;-67
2023/07/16 00:45:44;;;;;;;;;5.00;4.00;;;;;21.72;44.87;100856.97;5097702;27;45491;-67
2023/07/16 00:48:10;;;;;;;;;4.75;4.00;;;;;21.94;45.25;100903.25;5099598;27;46398;-67
2023/07/16 00:50:39;;;;;;;;;7.50;6.00;;;;;21.90;45.60;100898.16;5081372;27;45544;-67
2023/07/16 00:53:08;;;;;;;;;5.00;5.00;;;;;21.94;45.81;100902.38;5081548;27;45348;-67
2023/07/16 00:55:35;;;;;;;;;7.00;4.50;;;;;21.93;45.39;100908.78;5082849;27;45395;-67
2023/07/16 00:58:05;;;;;;;;;6.50;4.50;;;;;21.71;45.68;100877.00;5101206;27;45341;-67
2023/07/16 01:00:31;;;;;;;;;7.25;5.50;;;;;21.74;45.28;100893.91;5101120;27;45321;-67
2023/07/16 01:02:56;;;;;;;;;5.25;5.00;;;;;21.68;46.07;100883.50;5082821;27;45444;-67
2023/07/16 01:05:27;;;;;;;;;6.00;5.50;;;;;21.68;45.84;100894.38;5072938;28;45514;-67
2023/07/16 01:08:02;;;;;;;;;6.25;5.50;;;;;21.53;45.95;100877.41;5092003;27;46803;-67
2023/07/16 01:10:28;;;;;;;;;5.00;2.25;;;;;21.63;46.28;100897.47;5086809;27;45334;-67
2023/07/16 01:12:56;;;;;;;;;5.00;5.00;;;;;21.53;46.33;100890.97;5082822;27;45275;-67
2023/07/16 01:15:22;;;;;;;;;6.75;6.75;;;;;21.36;46.37;100870.50;5088509;27;45555;-67
2023/07/16 01:17:47;;;;;;;;;6.00;5.75;;;;;21.51;46.73;100902.97;5081834;27;48130;-67
2023/07/16 01:20:12;;;;;;;;;6.00;6.00;;;;;21.58;46.51;100915.09;5089676;27;45394;-66
2023/07/16 01:22:54;;;;;;;;;5.50;5.00;;;;;21.61;46.45;100931.16;5092775;27;45395;-67
2023/07/16 01:25:48;;;;;;;;;7.00;6.00;;;;;21.61;46.56;100928.44;5081198;27;45587;-66
2023/07/16 01:28:34;;;;;;;;;5.25;5.25;;;;;21.57;47.04;100929.66;5089360;27;45587;-67
2023/07/16 01:31:00;;;;;;;;;5.00;5.00;;;;;21.33;47.16;100894.31;5100703;27;45311;-67
2023/07/16 01:33:26;;;;;;;;;8.25;6.00;;;;;21.48;46.77;100927.63;5099904;27;45389;-66
2023/07/16 01:35:52;;;;;;;;;4.00;4.00;;;;;21.52;46.90;100926.41;5081976;27;45571;-67
2023/07/16 01:38:18;;;;;;;;;8.75;6.00;;;;;21.51;47.11;100938.28;5087911;27;46131;-66
2023/07/16 01:40:44;;;;;;;;;8.25;6.25;;;;;21.49;47.40;100929.38;5082073;27;45592;-67
2023/07/16 01:43:10;;;;;;;;;6.00;6.00;;;;;21.26;46.85;100902.06;5089381;27;45420;-67
2023/07/16 01:45:35;;;;;;;;;4.25;4.25;;;;;21.37;47.26;100928.44;5100412;27;45472;-67
2023/07/16 01:48:28;;;;;;;;;6.00;6.00;;;;;21.43;47.19;100934.25;5089666;27;46329;-66
2023/07/16 01:50:53;;;;;;;;;9.00;9.00;;;;;21.32;47.46;100919.72;5081898;27;45709;-67
2023/07/16 01:53:19;;;;;;;;;6.75;6.00;;;;;21.20;47.37;100906.13;5078691;27;45541;-66
2023/07/16 01:55:44;;;;;;;;;6.25;6.25;;;;;21.20;47.82;100910.66;5091874;27;45372;-66
2023/07/16 01:58:10;;;;;;;;;6.00;6.00;;;;;21.35;47.83;100942.13;5100021;27;45462;-67
2023/07/16 02:00:36;;;;;;;;;7.25;7.25;;;;;21.06;47.67;100898.97;5081926;27;45442;-67
2023/07/16 02:03:02;;;;;;;;;8.00;7.75;;;;;21.21;47.80;100923.25;5075860;27;45666;-66
2023/07/16 02:05:27;;;;;;;;;9.75;6.00;;;;;21.28;48.08;100944.41;5099655;27;45458;-66
2023/07/16 02:07:52;;;;;;;;;7.75;6.75;;;;;21.24;48.21;100937.47;5099558;27;57225;-67
2023/07/16 02:10:18;;;;;;;;;6.75;4.75;;;;;21.13;48.43;100909.38;5097730;27;45420;-67
2023/07/16 02:12:43;;;;;;;;;8.75;7.25;;;;;21.16;48.21;100928.16;5068064;27;45355;-67
2023/07/16 02:15:09;;;;;;;;;8.25;6.50;;;;;21.21;48.17;100939.53;5081727;27;45660;-67
2023/07/16 02:17:34;;;;;;;;;7.00;7.00;;;;;21.12;48.62;100932.06;5098737;27;46398;-66
2023/07/16 02:20:00;;;;;;;;;6.00;6.00;;;;;21.16;48.52;100948.03;5081440;27;45415;-66
2023/07/16 02:22:25;;;;;;;;;8.00;5.25;;;;;21.15;48.25;100956.28;5095146;27;57117;-67
2023/07/16 02:24:50;;;;;;;;;6.50;6.00;;;;;;;;5099912;27;45359;-67
2023/07/16 02:27:16;;;;;;;;;8.00;8.00;;;;;21.09;48.82;100953.03;5097203;27;45455;-67
2023/07/16 02:29:41;;;;;;;;;5.00;5.00;;;;;21.09;48.52;100958.47;5081394;27;45807;-67
2023/07/16 02:32:07;;;;;;;;;7.00;7.00;;;;;21.08;48.63;100962.19;5097361;27;45608;-66
2023/07/16 02:34:32;;;;;;;;;7.75;6.50;;;;;21.02;48.60;100965.31;5087749;27;45436;-67
2023/07/16 02:36:57;;;;;;;;;6.75;6.00;;;;;20.80;48.82;100935.28;5098629;27;46518;-67
2023/07/16 02:39:23;;;;;;;;;7.00;4.25;;;;;20.78;48.63;100939.97;5087938;27;45413;-67
2023/07/16 02:41:49;;;;;;;;;5.75;5.25;;;;;20.78;48.82;100950.81;5081133;27;45476;-66
2023/07/16 02:44:14;;;;;;;;;5.00;4.00;;;;;20.87;48.94;100959.16;5070560;27;45381;-67
2023/07/16 02:46:39;;;;;;;;;6.00;4.00;;;;;20.84;49.00;100969.38;5098100;27;45550;-66
2023/07/16 02:49:05;;;;;;;;;6.75;3.00;;;;;20.63;49.00;100940.13;5080754;27;45412;-66
2023/07/16 02:51:30;;;;;;;;;8.25;6.00;;;;;20.81;49.35;100967.75;5099301;27;45394;-67
2023/07/16 02:53:56;;;;;;;;;4.50;4.00;;;;;20.72;49.61;100960.28;5092183;27;45545;-66
2023/07/16 02:56:21;;;;;;;;;5.00;5.00;;;;;20.74;49.42;100963.75;5099161;27;46620;-67
2023/07/16 02:58:46;;;;;;;;;5.00;5.00;;;;;20.62;49.33;100956.47;5081120;27;45361;-66
2023/07/16 03:01:12;;;;;;;;;7.00;4.00;;;;;20.62;49.45;100962.75;5099363;27;45370;-67
2023/07/16 03:03:37;;;;;;;;;5.25;5.25;;;;;20.54;49.77;100952.44;5084875;27;45559;-67
2023/07/16 03:06:03;;;;;;;;;6.00;5.75;;;;;20.61;49.83;100966.41;5093728;27;48255;-67
2023/07/16 03:08:29;;;;;;;;;6.25;5.75;;;;;20.67;50.11;100976.88;5089425;27;45314;-66
2023/07/16 03:10:56;;;;;;;;;6.00;6.00;;;;;20.55;50.14;100973.16;5087992;27;45587;-66
2023/07/16 03:13:21;;;;;;;;;8.50;4.75;;;;;20.39;50.52;100950.81;5093424;27;45422;-67
2023/07/16 03:15:47;;;;;;;;;7.50;6.25;;;;;20.56;50.94;100990.28;5100473;27;46180;-66
2023/07/16 03:18:12;;;;;;;;;9.00;8.50;;;;;20.45;50.63;100979.34;5083409;27;45377;-66
2023/07/16 03:20:37;;;;;;;;;5.00;5.00;;;;;20.40;50.68;100976.06;5102504;27;45507;-66
2023/07/16 03:23:03;;;;;;;;;9.00;8.25;;;;;20.16;50.85;100936.16;5079172;27;45364;-66
2023/07/16 03:25:28;;;;;;;;;6.25;6.00;;;;;20.18;51.33;100961.31;5084164;27;48061;-67
2023/07/16 03:27:53;;;;;;;;;5.25;5.25;;;;;20.35;51.19;100987.25;5102584;27;45429;-66
2023/07/16 03:30:19;;;;;;;;;4.75;4.00;;;;;20.18;51.28;100964.91;5102973;27;45422;-67
2023/07/16 03:32:44;;;;;;;;;5.25;4.75;;;;;20.33;51.25;100992.78;5101543;27;45323;-67
2023/07/16 03:35:09;;;;;;;;;6.75;5.75;;;;;20.16;51.15;100968.66;5102384;27;46306;-66
2023/07/16 03:37:35;;;;;;;;;5.25;4.75;;;;;20.25;51.39;100991.59;5098551;27;45379;-67
2023/07/16 03:40:18;;;;;;;;;8.00;5.50;;;;;20.31;51.26;100991.13;5077452;27;45802;-66
2023/07/16 03:42:44;;;;;;;;;11.00;8.50;;;;;20.30;51.98;100995.69;5081623;27;45579;-66
2023/07/16 03:45:10;;;;;;;;;6.75;5.75;;;;;20.18;51.45;100983.88;5098398;27;46264;-66
2023/07/16 03:47:36;;;;;;;;;6.00;5.50;;;;;20.25;51.81;101005.13;5099985;27;45354;-67
2023/07/16 03:50:02;;;;;;;;;6.75;6.00;;;;;20.06;51.88;100964.88;5098587;27;45248;-67
2023/07/16 03:52:28;;;;;;;;;3.75;3.75;;;;;20.18;51.85;100986.56;5102409;27;45306;-66
2023/07/16 03:54:54;;;;;;;;;9.50;7.75;;;;;20.20;51.84;101001.84;5098186;27;45355;-66
2023/07/16 03:57:20;;;;;;;;;9.00;7.50;;;;;20.16;52.13;100990.34;5102298;27;45576;-67
2023/07/16 03:59:45;;;;;;;;;6.50;5.50;;;;;20.04;52.00;100974.94;5100258;27;45318;-67
2023/07/16 04:02:10;;;;;;;;;5.00;5.00;;;;;20.15;51.72;100989.50;5101639;27;45302;-66
2023/07/16 04:04:36;;;;;;;;;5.75;5.75;;;;;20.17;51.78;100986.69;5077969;27;47242;-66
2023/07/16 04:07:01;;;;;;;;;6.00;5.75;;;;;20.08;51.86;100980.06;5099935;27;45390;-67
2023/07/16 04:09:27;;;;;;;;;6.75;6.50;;;;;20.30;51.62;101009.25;5084411;27;45695;-66
2023/07/16 04:11:52;;;;;;;;;6.25;5.50;;;;;20.28;52.07;101002.19;5100612;27;45547;-66
2023/07/16 04:14:18;;;;;;;;;6.00;5.50;;;;;20.27;52.12;101003.19;5101827;27;45475;-66
2023/07/16 04:16:43;;;;;;;;;4.50;4.50;;;;;19.98;52.23;100968.97;5100632;27;45361;-66
2023/07/16 04:19:09;;;;;;;;;4.75;4.75;;;;;20.15;52.26;100992.22;5082246;27;45441;-66
2023/07/16 04:21:35;;;;;;;;;4.25;4.25;;;;;20.17;52.73;101003.81;5101615;27;45642;-67
2023/07/16 04:24:02;;;;;;;;;6.00;5.00;;;;;20.14;52.65;100997.72;5090477;27;45445;-66
2023/07/16 04:26:27;;;;;;;;;6.75;6.00;;;;;19.98;52.28;100984.38;5099522;27;45415;-66
2023/07/16 04:28:52;;;;;;;;;5.00;4.50;;;;;19.95;52.97;100990.00;5092323;27;45322;-67
2023/07/16 04:31:18;;;;;;;;;7.00;6.00;;;;;20.07;52.30;101012.69;5081384;27;45487;-67
2023/07/16 04:33:43;;;;;;;;;7.00;6.25;;;;;19.91;52.85;101002.88;5096925;27;45907;-66
2023/07/16 04:36:08;;;;;;;;;5.00;5.00;;;;;20.03;53.16;101024.69;5101713;27;45436;-67
2023/07/16 04:38:34;;;;;;;;;6.50;5.50;;;;;19.87;52.90;101005.91;5098783;27;45855;-66
2023/07/16 04:40:59;;;;;;;;;7.00;5.75;;;;;19.85;53.16;101008.72;5101452;27;45541;-66
2023/07/16 04:43:24;;;;;;;;;6.25;5.25;;;;;19.87;53.27;101020.31;5101259;27;45532;-66
2023/07/16 04:45:50;;;;;;;;;6.75;5.00;;;;;19.96;53.16;101038.66;5101564;27;45724;-67
2023/07/16 04:48:15;;;;;;;;;6.00;6.00;;;;;19.92;53.26;101045.25;5081023;27;45499;-67
2023/07/16 04:50:40;;;;;;;;;5.00;5.00;;;;;19.80;53.60;101035.25;5099492;27;45602;-67
2023/07/16 04:53:06;;;;;;;;;8.50;5.75;;;;;19.86;53.65;101059.19;5099711;27;45591;-66
2023/07/16 04:55:39;;;;;;;;;6.00;3.75;;;;;19.80;53.82;101048.78;5091239;27;45463;-67
2023/07/16 04:58:04;;;;;;;;;5.50;5.00;;;;;19.82;54.02;101065.78;5099915;27;45375;-66
2023/07/16 05:00:31;;;;;;;;;6.25;6.25;;;;;19.80;54.20;101062.31;5091191;27;45514;-67
2023/07/16 05:02:57;;;;;;;;;7.75;5.00;;;;;19.59;54.26;101032.94;5082029;27;47900;-66
2023/07/16 05:05:22;;;;;;;;;4.50;4.00;;;;;19.54;54.49;101026.94;5081597;27;49699;-66
2023/07/16 05:07:47;;;;;;;;;5.50;4.50;;;;;19.56;54.55;101037.69;5101312;27;45463;-66
2023/07/16 05:10:13;;;;;;;;;5.75;4.75;;;;;19.72;54.70;101061.94;5097472;27;46465;-67
2023/07/16 05:12:38;;;;;;;;;5.50;4.75;;;;;19.75;55.05;101075.31;5099149;27;47811;-67
2023/07/16 05:15:04;;;;;;;;;7.00;7.00;;;;;19.46;54.64;101026.56;5090247;27;45598;-67
2023/07/16 05:17:29;;;;;;;;;6.25;6.25;;;;;19.71;55.06;101074.59;5081637;27;45605;-67
2023/07/16 05:19:54;;;;;;;;;7.25;5.25;;;;;19.69;55.01;101068.41;5091347;27;47950;-67
2023/07/16 05:22:20;;;;;;;;;5.25;5.25;;;;;19.70;55.12;101066.59;5100778;27;45350;-67
2023/07/16 05:24:45;;;;;;;;;6.75;6.00;;;;;19.54;55.38;101036.91;5092736;27;45373;-67
2023/07/16 05:27:10;;;;;;;;;5.75;3.50;;;;;19.77;55.39;101079.63;5100853;27;45603;-67
2023/07/16 05:29:36;;;;;;;;;7.75;7.00;;;;;19.65;55.56;101052.47;5094383;27;45445;-67
2023/07/16 05:32:02;;;;;;;;;7.00;7.00;;;;;19.46;55.41;101009.47;5099644;27;46134;-67
2023/07/16 05:34:27;;;;;;;;;8.75;6.00;;;;;19.73;55.74;101060.94;5090142;27;45311;-67
2023/07/16 05:36:54;;;;;;;;;5.00;5.00;;;;;19.66;55.99;101048.78;5098604;27;45356;-67
2023/07/16 05:39:20;;;;;;;;;9.00;7.00;;;;;19.70;56.05;101067.44;5090276;27;45276;-67
2023/07/16 05:41:46;;;;;;;;;7.50;7.50;;;;;19.76;55.91;101072.50;5080923;27;47099;-67
2023/07/16 05:44:11;;;;;;;;;10.25;7.75;;;;;19.81;55.88;101074.88;5092633;27;45522;-67
2023/07/16 05:46:36;;;;;;;;;8.25;8.25;;;;;19.71;56.10;101076.44;5080904;27;45407;-67
2023/07/16 05:49:02;;;;;;;;;8.00;7.25;;;;;19.78;56.40;101069.69;5099367;27;46948;-67
2023/07/16 05:51:27;;;;;;;;;9.75;9.00;;;;;19.82;56.38;101076.63;5100155;27;45475;-67
2023/07/16 05:53:53;;;;;;;;;6.50;6.50;;;;;19.86;56.28;101088.97;5095622;27;45390;-67
2023/07/16 05:56:18;;;;;;;;;8.00;7.50;;;;;19.85;56.74;101089.97;5097815;27;45483;-67
2023/07/16 05:58:43;;;;;;;;;10.25;7.25;;;;;19.67;56.75;101069.50;5097242;27;45749;-67
2023/07/16 06:01:09;;;;;;;;;10.50;7.75;;;;;19.80;56.99;101097.53;5079075;27;48436;-67
2023/07/16 06:03:34;;;;;;;;;10.75;7.50;;;;;19.65;56.70;101058.75;5079710;27;45471;-68
2023/07/16 06:06:00;;;;;;;;;7.25;7.25;;;;;19.73;56.53;101079.91;5099295;27;45811;-72
2023/07/16 06:08:25;;;;;;;;;11.75;10.50;;;;;19.79;56.78;101074.97;5086844;27;45586;-73
2023/07/16 06:10:51;;;;;;;;;8.00;6.25;;;;;19.92;57.00;101098.56;5072152;27;46006;-73
2023/07/16 06:13:17;;;;;;;;;9.25;7.00;;;;;19.76;57.08;101075.22;5099884;27;45350;-72
2023/07/16 06:15:43;;;;;;;;;8.00;8.00;;;;;19.89;57.23;101094.22;5087448;27;45505;-71
2023/07/16 06:18:08;;;;;;;;;4.00;4.00;;;;;19.71;57.17;101065.59;5082113;27;45359;-72
2023/07/16 06:20:34;;;;;;;;;10.50;8.00;;;;;19.77;56.90;101081.47;5099377;27;46467;-72
2023/07/16 06:22:59;;;;;;;;;8.25;7.25;;;;;19.87;57.15;101090.75;5098585;27;45314;-72
2023/07/16 06:25:24;;;;;;;;;9.25;7.00;;;;;19.92;57.20;101102.13;5073702;27;45509;-74
2023/07/16 06:27:50;;;;;;;;;6.75;6.75;;;;;19.86;56.96;101080.84;5097872;27;45579;-74
2023/07/16 06:30:15;;;;;;;;;8.00;6.25;;;;;19.90;57.41;101095.09;5076455;27;47677;-74
2023/07/16 06:32:40;;;;;;;;;8.75;7.25;;;;;19.87;57.27;101089.88;5095725;27;45859;-73
2023/07/16 06:35:06;;;;;;;;;7.50;7.25;;;;;19.89;57.42;101094.22;5080681;27;45360;-72
2023/07/16 06:37:31;;;;;;;;;5.25;5.00;;;;;20.06;57.43;101116.59;5094745;27;45667;-73
2023/07/16 06:39:57;;;;;;;;;5.75;5.75;;;;;19.90;57.07;101090.53;5077461;27;47088;-76
2023/07/16 06:42:22;;;;;;;;;8.00;5.75;;;;;19.93;57.35;101087.63;5077015;27;45529;-75
2023/07/16 06:44:47;;;;;;;;;7.00;6.25;;;;;20.20;56.91;101118.38;5099205;27;45356;-75
2023/07/16 06:47:13;;;;;;;;;7.75;6.75;;;;;20.16;57.37;101106.88;5097601;27;45369;-74
2023/07/16 06:49:38;;;;;;;;;10.00;8.00;;;;;20.18;57.14;101102.25;5071664;27;45819;-75
2023/07/16 06:52:04;;;;;;;;;8.75;7.50;;;;;20.23;57.07;101104.63;5098263;27;45612;-74
2023/07/16 06:54:29;;;;;;;;;8.50;7.25;;;;;20.10;57.39;101080.22;5078542;27;45424;-76
2023/07/16 06:56:55;;;;;;;;;10.50;7.25;;;;;20.35;57.10;101120.09;5097583;27;45535;-74
2023/07/16 06:59:20;;;;;;;;;7.25;7.00;;;;;20.32;56.92;101123.88;5097514;27;46170;-74
2023/07/16 07:01:45;;;;;;;;;6.25;6.25;;;;;20.26;57.40;101116.13;5099047;27;45382;-73
2023/07/16 07:04:11;;;;;;;;;11.00;6.75;;;;;20.21;57.27;101114.72;5098427;27;45302;-73
2023/07/16 07:06:36;;;;;;;;;10.25;7.50;;;;;20.25;57.09;101116.28;5099376;27;45319;-74
2023/07/16 07:09:01;;;;;;;;;7.25;6.25;;;;;20.35;57.36;101130.94;5096686;27;45542;-75
2023/07/16 07:11:27;;;;;;;;;6.50;6.00;;;;;20.15;57.12;101088.91;5079019;27;45267;-76
2023/07/16 07:13:52;;;;;;;;;7.75;7.50;;;;;20.35;56.79;101112.81;5091914;27;45518;-75
2023/07/16 07:16:18;;;;;;;;;12.00;7.50;;;;;20.25;57.13;101086.44;5077042;27;45518;-76
2023/07/16 07:18:43;;;;;;;;;7.00;6.50;;;;;20.44;56.68;101119.47;5061143;27;47666;-75
2023/07/16 07:21:09;;;;;;;;;6.25;5.25;;;;;20.53;57.02;101126.97;5098988;27;45330;-75
2023/07/16 07:23:34;;;;;;;;;8.25;6.00;;;;;20.39;57.07;101093.63;5098852;27;45286;-75
2023/07/16 07:25:59;;;;;;;;;10.25;6.25;;;;;20.52;56.82;101108.97;5077592;27;45344;-74
2023/07/16 07:28:25;;;;;;;;;5.00;4.50;;;;;20.65;57.21;101141.56;5098146;27;46806;-74
2023/07/16 07:30:50;;;;;;;;;8.00;6.25;;;;;20.68;57.09;101126.91;5097948;27;45570;-75
2023/07/16 07:33:16;;;;;;;;;9.00;7.25;;;;;20.65;56.72;101128.00;5093070;27;45412;-74
2023/07/16 07:35:41;;;;;;;;;7.00;4.50;;;;;20.66;56.51;101118.88;5058457;28;45493;-75
2023/07/16 07:38:07;;;;;;;;;5.50;5.50;;;;;20.57;56.41;101086.09;5078634;27;45521;-76
2023/07/16 07:40:32;;;;;;;;;8.50;7.75;;;;;20.72;56.53;101120.31;5096184;27;45461;-74
2023/07/16 07:42:58;;;;;;;;;9.00;8.25;;;;;20.86;56.41;101133.78;5097965;27;45386;-74
2023/07/16 07:45:24;;;;;;;;;7.00;5.75;;;;;20.91;56.10;101130.75;5077107;27;49073;-75
2023/07/16 07:47:50;;;;;;;;;7.25;6.00;;;;;20.93;55.74;101131.50;5097061;27;46205;-74
2023/07/16 07:50:15;;;;;;;;;7.00;7.00;;;;;20.93;55.64;101115.22;5079051;27;45735;-74
2023/07/16 07:52:41;;;;;;;;;6.75;6.25;;;;;21.03;56.11;101126.31;5097700;27;45470;-74
2023/07/16 07:55:06;;;;;;;;;4.25;3.75;;;;;21.01;55.92;101112.84;5078427;27;45503;-74
2023/07/16 07:57:32;;;;;;;;;5.00;5.00;;;;;20.98;55.40;101104.06;5097875;27;45313;-74
2023/07/16 07:59:57;;;;;;;;;7.00;7.00;;;;;21.01;55.69;101104.69;5097856;27;45522;-75
2023/07/16 08:02:26;;;;;;;;;5.75;4.25;;;;;21.23;54.91;101133.03;5087044;27;45439;-74
2023/07/16 08:04:52;;;;;;;;;7.00;5.75;;;;;21.32;55.69;101132.41;5098753;27;45413;-74
2023/07/16 08:07:18;;;;;;;;;7.00;6.00;;;;;21.20;55.50;101103.38;5100185;27;45504;-74
2023/07/16 08:09:43;;;;;;;;;9.00;5.75;;;;;21.28;54.51;101111.84;5083012;27;45824;-74
2023/07/16 08:12:08;;;;;;;;;7.75;6.50;;;;;21.41;54.28;101103.69;5099006;27;45759;-74
2023/07/16 08:14:34;;;;;;;;;10.25;7.25;;;;;21.44;54.69;101103.50;5100460;27;45569;-75
2023/07/16 08:16:59;;;;;;;;;7.25;7.00;;;;;21.52;54.10;101108.38;5100458;27;45942;-74
2023/07/16 08:19:25;;;;;;;;;4.50;4.25;;;;;21.62;54.00;101131.19;5099428;27;45417;-75
2023/07/16 08:21:50;;;;;;;;;8.00;6.00;;;;;21.53;53.73;101101.97;5093815;27;45736;-74
2023/07/16 08:24:15;;;;;;;;;6.25;4.75;;;;;21.79;53.19;101140.81;5094363;27;45378;-74
2023/07/16 08:26:41;;;;;;;;;8.00;6.50;;;;;21.76;53.32;101122.88;5082542;27;52941;-74
2023/07/16 08:29:06;;;;;;;;;5.00;4.00;;;;;21.84;52.54;101131.34;5101900;27;45452;-74
2023/07/16 08:31:31;;;;;;;;;10.75;6.00;;;;;21.78;52.69;101118.19;5098478;27;45545;-75
2023/07/16 08:33:57;;;;;;;;;8.75;4.75;;;;;21.94;52.79;101134.25;5081701;27;45605;-74
2023/07/16 08:36:22;;;;;;;;;6.00;5.25;;;;;21.98;52.38;101141.19;5098578;27;46169;-74
2023/07/16 08:38:47;;;;;;;;;5.50;4.75;;;;;21.96;51.71;101124.13;5090015;27;45329;-75
2023/07/16 08:41:14;;;;;;;;;7.75;6.50;;;;;22.06;51.84;101134.31;5088495;27;45601;-74
2023/07/16 08:43:41;;;;;;;;;8.50;6.00;;;;;21.96;51.64;101112.41;5100065;27;45558;-75
2023/07/16 08:46:08;;;;;;;;;4.50;4.00;;;;;22.06;51.88;101124.31;5097282;27;45529;-74
2023/07/16 08:48:33;;;;;;;;;6.50;5.50;;;;;22.09;51.66;101121.38;5099110;27;45588;-75
2023/07/16 08:51:01;;;;;;;;;7.75;6.00;;;;;22.24;51.87;101145.69;5078307;27;45667;-74
2023/07/16 08:53:27;;;;;;;;;5.50;4.75;;;;;22.28;51.92;101130.84;5088963;27;45284;-75
2023/07/16 08:55:52;;;;;;;;;6.75;6.50;;;;;22.31;51.93;101126.06;5080760;27;46514;-75
2023/07/16 08:58:21;;;;;;;;;5.00;4.00;;;;;22.28;51.25;101136.28;5081226;27;45500;-76
2023/07/16 09:00:48;;;;;;;;;6.00;6.00;;;;;22.35;51.09;101140.31;5099667;27;45433;-74
2023/07/16 09:03:16;;;;;;;;;6.00;5.25;;;;;22.38;50.01;101131.91;5099179;27;45435;-74
2023/07/16 09:05:42;;;;;;;;;4.25;4.25;;;;;22.37;50.74;101127.50;5076534;27;45369;-75
2023/07/16 09:08:08;;;;;;;;;6.25;6.25;;;;;22.48;50.55;101145.69;5100715;27;45468;-74
2023/07/16 09:10:34;;;;;;;;;6.00;4.00;;;;;22.34;50.42;101117.69;5097261;27;45447;-75
2023/07/16 09:12:59;;;;;;;;;5.50;5.25;;;;;22.55;50.58;101150.56;5097491;27;45512;-74
2023/07/16 09:15:27;;;;;;;;;7.25;5.00;;;;;22.51;50.04;101138.16;5099377;27;46075;-74
2023/07/16 09:17:54;;;;;;;;;4.75;3.50;;;;;22.42;49.76;101111.69;5078121;27;45429;-74
2023/07/16 09:20:19;;;;;;;;;6.00;5.00;;;;;22.60;49.67;101144.75;5078795;27;45340;-76
2023/07/16 09:22:47;;;;;;;;;5.75;4.00;;;;;22.60;49.54;101144.75;5099794;27;45539;-75
2023/07/16 09:25:12;;;;;;;;;4.00;3.50;;;;;22.63;49.17;101133.63;5081859;27;47161;-75
2023/07/16 09:27:37;;;;;;;;;4.00;4.00;;;;;22.62;48.89;101136.47;5099342;27;45279;-75
2023/07/16 09:30:05;;;;;;;;;4.75;3.00;;;;;22.67;48.71;101143.31;5079394;27;45338;-79
2023/07/16 09:32:34;;;;;;;;;5.00;3.00;;;;;22.78;48.84;101139.75;5093537;27;45458;-76
2023/07/16 09:35:00;;;;;;;;;3.50;3.50;;;;;22.74;48.50;101139.13;5100466;27;46527;-78
2023/07/16 09:37:26;;;;;;;;;7.25;4.75;;;;;22.79;48.63;101143.31;5098019;27;45516;-77
2023/07/16 09:39:52;;;;;;;;;4.75;4.75;;;;;22.84;48.39;101131.09;5100743;27;45326;-77
2023/07/16 09:42:18;;;;;;;;;3.75;3.75;;;;;22.91;48.29;101154.13;5099738;27;46934;-78
2023/07/16 09:44:44;;;;;;;;;4.00;4.00;;;;;22.97;47.49;101149.19;5100572;27;45366;-75
2023/07/16 09:47:09;;;;;;;;;7.00;5.50;;;;;22.98;47.85;101145.50;5077202;27;45485;-72
2023/07/16 09:49:35;;;;;;;;;5.25;3.75;;;;;22.87;47.80;101119.09;5086235;27;45815;-74
2023/07/16 09:52:02;;;;;;;;;3.00;3.00;;;;;22.85;48.05;101108.31;5091422;27;45521;-72
2023/07/16 09:54:32;;;;;;;;;4.25;4.00;;;;;23.12;47.98;101146.16;5077729;27;48486;-71
2023/07/16 09:56:59;;;;;;;;;3.25;3.00;;;;;23.12;47.93;101137.13;5092936;27;45426;-74
2023/07/16 09:59:28;;;;;;;;;4.25;4.25;;;;;23.11;48.41;101130.81;5091734;27;45617;-73
2023/07/16 10:01:55;;;;;;;;;7.00;5.00;;;;;23.23;47.75;101147.16;5077246;27;45690;-73
2023/07/16 10:04:21;;;;;;;;;4.00;4.00;;;;;23.17;47.25;101134.03;5095941;27;45782;-71
2023/07/16 10:07:23;;;;;;;;;6.75;3.50;;;;;23.26;47.74;101145.06;5073767;27;45817;-71
2023/07/16 10:09:55;;;;;;;;;5.75;4.00;;;;;23.28;48.15;101139.50;5052535;27;45537;-73
2023/07/16 10:12:22;;;;;;;;;6.25;4.50;;;;;23.24;47.85;101135.31;5092984;27;45497;-73
2023/07/16 10:14:50;;;;;;;;;6.75;4.50;;;;;23.28;47.89;101143.06;5096312;27;45811;-73
2023/07/16 10:17:20;;;;;;;;;4.00;4.00;;;;;23.29;47.74;101133.06;5095832;27;45561;-73
2023/07/16 10:20:10;;;;;;;;;4.00;4.00;;;;;23.39;47.36;101139.50;5075695;27;45573;-71
2023/07/16 10:22:41;;;;;;;;;7.00;6.00;;;;;23.41;46.71;101125.78;5093619;27;45835;-70
2023/07/16 10:25:22;;;;;;;;;6.25;5.25;;;;;23.42;46.48;101127.47;5089111;27;45799;-73
2023/07/16 10:27:50;;;;;;;;;6.00;5.00;;;;;23.44;46.01;101133.69;5091500;27;45531;-73
2023/07/16 10:30:16;;;;;;;;;9.75;5.25;;;;;23.39;46.08;101127.72;5093755;27;45484;-73
2023/07/16 10:32:42;;;;;;;;;3.25;3.25;;;;;23.40;45.81;101110.41;5090688;27;45521;-74
2023/07/16 10:35:09;;;;;;;;;3.75;3.00;;;;;23.52;44.67;101133.91;5099107;27;46597;-74
2023/07/16 10:37:35;;;;;;;;;9.25;6.00;;;;;23.52;44.68;101133.91;5089727;27;45464;-74
2023/07/16 10:40:01;;;;;;;;;5.00;3.75;;;;;23.57;44.82;101133.56;5097423;27;45809;-74
2023/07/16 10:42:27;;;;;;;;;5.25;4.00;;;;;23.56;44.50;101138.16;5099500;27;45456;-74
2023/07/16 10:44:55;;;;;;;;;2.50;2.50;;;;;23.59;44.48;101129.72;5080656;27;47287;-75
2023/07/16 10:47:23;;;;;;;;;1.75;0.25;;;;;23.61;44.63;101135.91;5091181;27;45322;-74
2023/07/16 10:49:49;;;;;;;;;4.00;3.25;;;;;23.58;44.40;101113.50;5099015;27;47101;-74
2023/07/16 10:52:15;;;;;;;;;3.00;3.00;;;;;23.62;44.10;101124.03;5095857;27;45377;-74
2023/07/16 10:54:41;;;;;;;;;4.00;4.00;;;;;23.56;44.17;101107.31;5098938;27;45411;-75
2023/07/16 10:57:06;;;;;;;;;6.00;4.75;;;;;23.69;44.18;101124.41;5099504;27;45391;-74
2023/07/16 10:59:32;;;;;;;;;4.75;4.00;;;;;23.66;43.02;101109.16;5099708;27;45254;-74
2023/07/16 11:01:58;;;;;;;;;4.50;2.50;;;;;23.73;43.84;101123.13;5098976;27;45311;-74
2023/07/16 11:04:23;;;;;;;;;3.50;3.00;;;;;23.60;43.40;101092.44;5098894;27;46527;-74
2023/07/16 11:06:52;;;;;;;;;3.00;3.00;;;;;23.79;42.93;101113.56;5098608;27;45470;-75
2023/07/16 11:09:17;;;;;;;;;3.00;3.00;;;;;23.84;43.04;101116.84;5085820;27;45533;-74
2023/07/16 11:11:43;;;;;;;;;4.75;3.00;;;;;23.89;42.70;101114.59;5086074;27;45356;-74
2023/07/16 11:14:09;;;;;;;;;4.00;2.00;;;;;23.93;42.35;101113.34;5099408;27;45385;-74
2023/07/16 11:16:37;;;;;;;;;4.75;2.50;;;;;23.92;42.75;101108.88;5089107;27;45445;-75
2023/07/16 11:19:07;;;;;;;;;2.00;2.00;;;;;23.98;42.07;101099.34;5098672;27;45562;-74
2023/07/16 11:21:35;;;;;;;;;3.00;3.00;;;;;23.95;42.81;101094.13;5099086;27;45372;-74